Time;durP1;ratioP1;P1;durP2;ratioP2;P2;SDS_P1;SDS_P2;PMS_P1;PMS_P2;Temp;Humidity;BMP_temperature;BMP_pressure;BME280_temperature;BME280_humidity;BME280_pressure;Samples;Min_cycle;Max_cycle;Signal;HPM_P1;HPM_P2
2021/01/15 00:01:23;;;;;;;1999.90;999.90;;;;;;;;;;5044716;28;20493;-83
2021/01/15 00:03:49;;;;;;;1999.90;999.90;;;;;;;;;;5046541;28;20100;-82
2021/01/15 00:06:21;;;;;;;1999.90;999.90;;;;;;;;;;5044571;28;20473;-82
2021/01/15 00:08:47;;;;;;;1999.90;999.90;;;;;;;;;;5042476;28;20045;-83
2021/01/15 00:11:17;;;;;;;1999.90;999.90;;;;;;;;;;5050682;28;20025;-83
2021/01/15 00:13:43;;;;;;;1999.90;999.90;;;;;;;;;;5028290;28;20036;-82
2021/01/15 00:16:28;;;;;;;1999.90;999.90;;;;;;;;;;5056178;28;20076;-83
2021/01/15 00:18:55;;;;;;;1999.90;999.90;;;;;;;;;;5054121;28;20030;-84
2021/01/15 00:21:30;;;;;;;1999.90;999.90;;;;;;;;;;5045391;28;20034;-82
2021/01/15 00:23:56;;;;;;;;;;;;;;;;;;5068371;28;20032;-81
2021/01/15 00:26:21;;;;;;;;;;;;;;;;;;5067552;28;19909;-80
2021/01/15 00:28:47;;;;;;;1999.90;999.90;;;;;;;;;;5064104;28;20322;-82
2021/01/15 00:31:14;;;;;;;1999.90;999.90;;;;;;;;;;5055791;28;20055;-83
2021/01/15 00:33:39;;;;;;;1999.90;999.90;;;;;;;;;;5060663;28;20017;-82
2021/01/15 00:36:06;;;;;;;1999.90;999.90;;;;;;;;;;5058124;28;20044;-82
2021/01/15 00:38:31;;;;;;;1999.90;999.90;;;;;;;;;;5047914;28;20025;-81
2021/01/15 00:40:59;;;;;;;1999.90;999.90;;;;;;;;;;5062490;28;20090;-83
2021/01/15 00:43:25;;;;;;;1999.90;999.90;;;;;;;;;;5032830;28;20072;-83
2021/01/15 00:45:50;;;;;;;1999.90;999.90;;;;;;;;;;5043692;28;20052;-83
2021/01/15 00:48:16;;;;;;;1999.90;999.90;;;;;;;;;;5048960;28;20190;-81
2021/01/15 00:50:41;;;;;;;1999.90;999.90;;;;;;;;;;5043810;28;20079;-82
2021/01/15 00:53:07;;;;;;;1999.90;999.90;;;;;;;;;;5020738;28;20029;-83
2021/01/15 00:55:32;;;;;;;1999.90;999.90;;;;;;;;;;5036781;28;20021;-83
2021/01/15 00:57:58;;;;;;;1999.90;999.90;;;;;;;;;;5045848;28;20025;-81
2021/01/15 01:00:24;;;;;;;1999.90;999.90;;;;;;;;;;5043090;28;20052;-82
2021/01/15 01:02:58;;;;;;;1999.90;999.90;;;;;;;;;;5041010;28;20150;-81
2021/01/15 01:05:25;;;;;;;1999.90;999.90;;;;;;;;;;5043955;28;20059;-82
2021/01/15 01:07:51;;;;;;;1999.90;999.90;;;;;;;;;;5039433;28;20021;-83
2021/01/15 01:10:17;;;;;;;1999.90;999.90;;;;;;;;;;5042105;28;20037;-82
2021/01/15 01:12:43;;;;;;;1999.90;999.90;;;;;;;;;;5038563;28;20033;-82
2021/01/15 01:15:09;;;;;;;1999.90;999.90;;;;;;;;;;5041333;28;20090;-82
2021/01/15 01:17:35;;;;;;;1999.90;999.90;;;;;;;;;;5038919;28;20040;-84
2021/01/15 01:20:00;;;;;;;1999.90;999.90;;;;;;;;;;5044227;28;20025;-82
2021/01/15 01:22:26;;;;;;;1999.90;999.90;;;;;;;;;;5040435;28;20052;-82
2021/01/15 01:24:51;;;;;;;1999.90;999.90;;;;;;;;;;5046246;28;20119;-82
2021/01/15 01:27:16;;;;;;;1999.90;999.90;;;;;;;;;;5042548;28;20107;-82
2021/01/15 01:29:42;;;;;;;1999.90;999.90;;;;;;;;;;5042284;28;20090;-83
2021/01/15 01:32:07;;;;;;;1999.90;999.90;;;;;;;;;;5046221;28;20025;-82
2021/01/15 01:34:33;;;;;;;1999.90;999.90;;;;;;;;;;5039070;28;20044;-82
2021/01/15 01:36:58;;;;;;;1999.90;999.90;;;;;;;;;;5043432;28;20017;-82
2021/01/15 01:39:24;;;;;;;1999.90;999.90;;;;;;;;;;5039749;28;20041;-82
2021/01/15 01:41:49;;;;;;;1999.90;999.90;;;;;;;;;;5039364;28;20048;-82
2021/01/15 01:44:14;;;;;;;1999.90;999.90;;;;;;;;;;5041058;28;20075;-82
2021/01/15 01:46:40;;;;;;;1999.90;999.90;;;;;;;;;;5044078;28;20013;-83
2021/01/15 01:49:06;;;;;;;1999.90;999.90;;;;;;;;;;5038046;28;20529;-82
2021/01/15 01:51:31;;;;;;;1999.90;999.90;;;;;;;;;;5039833;28;20079;-82
2021/01/15 01:53:57;;;;;;;1999.90;999.90;;;;;;;;;;5040231;28;20373;-82
2021/01/15 01:56:22;;;;;;;1999.90;999.90;;;;;;;;;;5044517;28;20136;-83
2021/01/15 01:58:49;;;;;;;1999.90;999.90;;;;;;;;;;5038398;28;20063;-82
2021/01/15 02:01:15;;;;;;;1999.90;999.90;;;;;;;;;;5046356;28;20040;-82
2021/01/15 02:03:41;;;;;;;1999.90;999.90;;;;;;;;;;5038712;28;20104;-82
2021/01/15 02:06:07;;;;;;;1999.90;999.90;;;;;;;;;;5039877;28;20119;-82
2021/01/15 02:08:32;;;;;;;1999.90;999.90;;;;;;;;;;5035831;28;20121;-82
2021/01/15 02:11:17;;;;;;;1999.90;999.90;;;;;;;;;;5045019;28;20523;-83
2021/01/15 02:14:04;;;;;;;1999.90;999.90;;;;;;;;;;5040665;28;20021;-82
2021/01/15 02:16:30;;;;;;;1999.90;999.90;;;;;;;;;;5021688;28;20075;-83
2021/01/15 02:19:00;;;;;;;1999.90;999.90;;;;;;;;;;5036807;28;20018;-82
2021/01/15 02:21:45;;;;;;;1999.90;999.90;;;;;;;;;;5042064;28;20140;-82
2021/01/15 02:24:10;;;;;;;1999.90;999.90;;;;;;;;;;5043350;28;20057;-82
2021/01/15 02:26:41;;;;;;;1999.90;999.90;;;;;;;;;;5045746;28;20044;-82
2021/01/15 02:29:10;;;;;;;1999.90;999.90;;;;;;;;;;5044774;28;20033;-82
2021/01/15 02:31:45;;;;;;;1999.90;999.90;;;;;;;;;;5029694;28;20025;-82
2021/01/15 02:34:10;;;;;;;1999.90;999.90;;;;;;;;;;5046469;28;20044;-83
2021/01/15 02:36:37;;;;;;;1999.90;999.90;;;;;;;;;;5043271;28;20028;-81
2021/01/15 02:39:07;;;;;;;1999.90;999.90;;;;;;;;;;5046628;28;20037;-82
2021/01/15 02:41:33;;;;;;;1999.90;999.90;;;;;;;;;;5029263;28;20455;-82
2021/01/15 02:44:00;;;;;;;1999.90;999.90;;;;;;;;;;5043131;28;20112;-83
2021/01/15 02:46:37;;;;;;;1999.90;999.90;;;;;;;;;;5043574;28;20032;-82
2021/01/15 02:49:04;;;;;;;1999.90;999.90;;;;;;;;;;5037786;28;20485;-82
2021/01/15 02:51:33;;;;;;;1999.90;999.90;;;;;;;;;;5046182;28;20025;-82
2021/01/15 02:53:59;;;;;;;1999.90;999.90;;;;;;;;;;5048738;28;20104;-82
2021/01/15 02:56:24;;;;;;;1999.90;999.90;;;;;;;;;;5042937;28;20488;-80
2021/01/15 02:58:49;;;;;;;1999.90;999.90;;;;;;;;;;5042713;28;20059;-82
2021/01/15 03:01:16;;;;;;;1999.90;999.90;;;;;;;;;;5036563;28;20378;-82
2021/01/15 03:03:45;;;;;;;1999.90;999.90;;;;;;;;;;5041125;28;20033;-81
2021/01/15 03:06:15;;;;;;;1999.90;999.90;;;;;;;;;;5038790;28;20029;-81
2021/01/15 03:08:43;;;;;;;1999.90;999.90;;;;;;;;;;5038612;28;20152;-82
2021/01/15 03:11:09;;;;;;;1999.90;999.90;;;;;;;;;;5042530;28;20453;-82
2021/01/15 03:13:36;;;;;;;1999.90;999.90;;;;;;;;;;5045830;28;20035;-82
2021/01/15 03:16:02;;;;;;;1999.90;999.90;;;;;;;;;;5038263;28;20025;-82
2021/01/15 03:18:28;;;;;;;1999.90;999.90;;;;;;;;;;5038436;28;20397;-82
2021/01/15 03:20:54;;;;;;;1999.90;999.90;;;;;;;;;;5043449;28;20144;-82
2021/01/15 03:23:20;;;;;;;1999.90;999.90;;;;;;;;;;5044895;28;20028;-83
2021/01/15 03:25:45;;;;;;;1999.90;999.90;;;;;;;;;;5040136;28;20017;-82
2021/01/15 03:28:11;;;;;;;1999.90;999.90;;;;;;;;;;5043747;28;20025;-83
2021/01/15 03:30:36;;;;;;;1999.90;999.90;;;;;;;;;;5042985;28;20079;-82
2021/01/15 03:33:03;;;;;;;1999.90;999.90;;;;;;;;;;5045137;28;20025;-82
2021/01/15 03:35:29;;;;;;;1999.90;999.90;;;;;;;;;;5042217;28;20052;-81
2021/01/15 03:37:56;;;;;;;1999.90;999.90;;;;;;;;;;5042482;28;20060;-81
2021/01/15 03:40:22;;;;;;;1999.90;999.90;;;;;;;;;;5040821;28;20021;-82
2021/01/15 03:42:47;;;;;;;1999.90;999.90;;;;;;;;;;5040930;28;20778;-82
2021/01/15 03:45:13;;;;;;;1999.90;999.90;;;;;;;;;;5041475;28;20504;-82
2021/01/15 03:47:38;;;;;;;1999.90;999.90;;;;;;;;;;5041059;28;20033;-82
2021/01/15 03:50:04;;;;;;;1999.90;999.90;;;;;;;;;;5042196;28;20040;-81
2021/01/15 03:52:30;;;;;;;1999.90;999.90;;;;;;;;;;5039783;28;20049;-81
2021/01/15 03:54:55;;;;;;;1999.90;999.90;;;;;;;;;;5041933;28;20039;-81
2021/01/15 03:57:21;;;;;;;1999.90;999.90;;;;;;;;;;5026041;28;20045;-81
2021/01/15 03:59:47;;;;;;;1999.90;999.90;;;;;;;;;;5040574;28;20102;-81
2021/01/15 04:02:12;;;;;;;1999.90;999.90;;;;;;;;;;5046596;28;20033;-81
2021/01/15 04:04:38;;;;;;;1999.90;999.90;;;;;;;;;;5043663;28;20543;-82
2021/01/15 04:07:03;;;;;;;1999.90;999.90;;;;;;;;;;5042326;28;20017;-83
2021/01/15 04:09:28;;;;;;;1999.90;999.90;;;;;;;;;;5038889;28;20370;-83
2021/01/15 04:11:54;;;;;;;1999.90;999.90;;;;;;;;;;5048576;28;20615;-82
2021/01/15 04:14:19;;;;;;;1999.90;999.90;;;;;;;;;;5045878;28;20029;-82
2021/01/15 04:16:49;;;;;;;1999.90;999.90;;;;;;;;;;5047378;28;20095;-82
2021/01/15 04:19:15;;;;;;;1999.90;999.90;;;;;;;;;;5042438;28;20492;-83
2021/01/15 04:21:40;;;;;;;1999.90;999.90;;;;;;;;;;5045172;28;20048;-81
2021/01/15 04:24:06;;;;;;;1999.90;999.90;;;;;;;;;;5046645;28;20954;-81
2021/01/15 04:26:31;;;;;;;1999.90;999.90;;;;;;;;;;5047887;28;20036;-82
2021/01/15 04:28:57;;;;;;;1999.90;999.90;;;;;;;;;;5048733;28;20032;-83
2021/01/15 04:31:22;;;;;;;1999.90;999.90;;;;;;;;;;5050895;28;20068;-82
2021/01/15 04:33:47;;;;;;;1999.90;999.90;;;;;;;;;;5043739;28;20072;-82
2021/01/15 04:36:13;;;;;;;1999.90;999.90;;;;;;;;;;5043739;28;20037;-82
2021/01/15 04:38:39;;;;;;;1999.90;999.90;;;;;;;;;;5041526;28;20022;-82
2021/01/15 04:41:05;;;;;;;1999.90;999.90;;;;;;;;;;5040847;28;20044;-82
2021/01/15 04:43:30;;;;;;;1999.90;999.90;;;;;;;;;;5042316;28;20627;-81
2021/01/15 04:45:57;;;;;;;1999.90;999.90;;;;;;;;;;5044506;28;20094;-81
2021/01/15 04:48:23;;;;;;;1999.90;999.90;;;;;;;;;;5045406;28;20028;-80
2021/01/15 04:50:48;;;;;;;1999.90;999.90;;;;;;;;;;5043807;28;20041;-80
2021/01/15 04:53:16;;;;;;;1999.90;999.90;;;;;;;;;;5043423;28;20028;-80
2021/01/15 04:55:44;;;;;;;1999.90;999.90;;;;;;;;;;5047600;28;20131;-80
2021/01/15 04:58:09;;;;;;;1999.90;999.90;;;;;;;;;;5036074;28;20179;-81
2021/01/15 05:00:36;;;;;;;1999.90;999.90;;;;;;;;;;5043945;28;20144;-80
2021/01/15 05:03:03;;;;;;;1999.90;999.90;;;;;;;;;;5024133;28;20475;-81
2021/01/15 05:05:28;;;;;;;1999.90;999.90;;;;;;;;;;5049337;28;20037;-81
2021/01/15 05:08:10;;;;;;;1999.90;999.90;;;;;;;;;;5046596;28;20017;-81
2021/01/15 05:10:36;;;;;;;1999.90;999.90;;;;;;;;;;5042674;28;20037;-81
2021/01/15 05:13:04;;;;;;;1999.90;999.90;;;;;;;;;;5043066;28;20045;-81
2021/01/15 05:15:30;;;;;;;1999.90;999.90;;;;;;;;;;5043749;28;20033;-81
2021/01/15 05:17:57;;;;;;;1999.90;999.90;;;;;;;;;;5045358;28;20492;-79
2021/01/15 05:20:22;;;;;;;1999.90;999.90;;;;;;;;;;5043886;28;20201;-80
2021/01/15 05:22:48;;;;;;;1999.90;999.90;;;;;;;;;;5042826;28;20577;-81
2021/01/15 05:25:13;;;;;;;1999.90;999.90;;;;;;;;;;5047379;28;20052;-83
2021/01/15 05:27:42;;;;;;;1999.90;999.90;;;;;;;;;;5042395;28;20031;-82
2021/01/15 05:30:15;;;;;;;1999.90;999.90;;;;;;;;;;5046344;28;20128;-81
2021/01/15 05:32:41;;;;;;;1999.90;999.90;;;;;;;;;;5043355;28;20025;-81
2021/01/15 05:35:07;;;;;;;1999.90;999.90;;;;;;;;;;5040778;28;20037;-81
2021/01/15 05:37:33;;;;;;;1999.90;999.90;;;;;;;;;;5042664;28;20032;-81
2021/01/15 05:39:58;;;;;;;1999.90;999.90;;;;;;;;;;5045583;28;20020;-81
2021/01/15 05:42:24;;;;;;;1999.90;999.90;;;;;;;;;;5040175;28;20029;-81
2021/01/15 05:44:49;;;;;;;1999.90;999.90;;;;;;;;;;5038386;28;20035;-81
2021/01/15 05:47:14;;;;;;;1999.90;999.90;;;;;;;;;;5044943;28;20036;-82
2021/01/15 05:49:53;;;;;;;1999.90;999.90;;;;;;;;;;5040793;28;20432;-82
2021/01/15 05:52:19;;;;;;;1999.90;999.90;;;;;;;;;;5049233;28;20040;-81
2021/01/15 05:54:45;;;;;;;1999.90;999.90;;;;;;;;;;5048344;28;20218;-80
2021/01/15 05:57:23;;;;;;;1999.90;999.90;;;;;;;;;;5049484;28;20049;-84
2021/01/15 05:59:49;;;;;;;1999.90;999.90;;;;;;;;;;5047356;28;20032;-83
2021/01/15 06:02:14;;;;;;;1999.90;999.90;;;;;;;;;;5046949;28;20110;-84
2021/01/15 06:04:40;;;;;;;1999.90;999.90;;;;;;;;;;5043150;28;20021;-87
2021/01/15 06:07:06;;;;;;;1999.90;999.90;;;;;;;;;;5041652;28;20642;-84
2021/01/15 06:09:31;;;;;;;1999.90;999.90;;;;;;;;;;5040811;28;20060;-86
2021/01/15 06:12:03;;;;;;;1999.90;999.90;;;;;;;;;;5042795;28;20047;-85
2021/01/15 06:14:29;;;;;;;1999.90;999.90;;;;;;;;;;5044907;28;20027;-85
2021/01/15 06:17:01;;;;;;;1999.90;999.90;;;;;;;;;;5042087;28;20017;-85
2021/01/15 06:19:43;;;;;;;1999.90;999.90;;;;;;;;;;5042173;28;20029;-84
2021/01/15 06:22:09;;;;;;;1999.90;999.90;;;;;;;;;;5042746;28;20029;-84
2021/01/15 06:24:37;;;;;;;1999.90;999.90;;;;;;;;;;5048348;28;20020;-86
2021/01/15 06:27:05;;;;;;;1999.90;999.90;;;;;;;;;;5044690;28;20029;-86
2021/01/15 06:29:40;;;;;;;1999.90;999.90;;;;;;;;;;5043285;28;20032;-83
2021/01/15 06:32:07;;;;;;;1999.90;999.90;;;;;;;;;;5044324;28;20091;-81
2021/01/15 06:34:44;;;;;;;1999.90;999.90;;;;;;;;;;5045144;28;20032;-83
2021/01/15 06:37:11;;;;;;;1999.90;999.90;;;;;;;;;;5042432;28;20089;-83
2021/01/15 06:39:37;;;;;;;1999.90;999.90;;;;;;;;;;5046982;28;20031;-83
2021/01/15 06:42:03;;;;;;;1999.90;999.90;;;;;;;;;;5038394;28;20021;-85
2021/01/15 06:44:29;;;;;;;1999.90;999.90;;;;;;;;;;5036134;28;20041;-85
2021/01/15 06:46:55;;;;;;;1999.90;999.90;;;;;;;;;;5044732;28;20029;-85
2021/01/15 06:49:28;;;;;;;1999.90;999.90;;;;;;;;;;5041377;28;20048;-84
2021/01/15 06:51:55;;;;;;;1999.90;999.90;;;;;;;;;;5047430;28;20025;-83
2021/01/15 06:54:27;;;;;;;1999.90;999.90;;;;;;;;;;5042217;28;20013;-83
2021/01/15 06:57:03;;;;;;;1999.90;999.90;;;;;;;;;;5044964;28;20572;-82
2021/01/15 06:59:33;;;;;;;1999.90;999.90;;;;;;;;;;5043996;28;20044;-86
2021/01/15 07:02:21;;;;;;;1999.90;999.90;;;;;;;;;;5043600;28;20017;-82
2021/01/15 07:04:57;;;;;;;1999.90;999.90;;;;;;;;;;5007625;28;20037;-83
2021/01/15 07:07:25;;;;;;;1999.90;999.90;;;;;;;;;;5032138;28;20485;-80
2021/01/15 07:09:50;;;;;;;1999.90;999.90;;;;;;;;;;5044259;28;20080;-90
2021/01/15 07:12:23;;;;;;;1999.90;999.90;;;;;;;;;;5042569;28;20033;-90
2021/01/15 07:14:59;;;;;;;1999.90;999.90;;;;;;;;;;5047401;28;20483;-90
2021/01/15 07:17:24;;;;;;;1999.90;999.90;;;;;;;;;;5047042;28;20036;-90
2021/01/15 07:19:58;;;;;;;1999.90;999.90;;;;;;;;;;5048224;28;20017;-89
2021/01/15 07:22:27;;;;;;;1999.90;999.90;;;;;;;;;;5051258;28;20052;-89
2021/01/15 07:24:55;;;;;;;1999.90;999.90;;;;;;;;;;5034972;28;20033;-88
2021/01/15 07:27:22;;;;;;;1999.90;999.90;;;;;;;;;;5047279;28;20037;-90
2021/01/15 07:29:48;;;;;;;1999.90;999.90;;;;;;;;;;5046360;28;20028;-87
2021/01/15 07:32:19;;;;;;;1999.90;999.90;;;;;;;;;;5042287;28;20036;-85
2021/01/15 07:34:45;;;;;;;1999.90;999.90;;;;;;;;;;5042057;28;20956;-84
2021/01/15 07:37:20;;;;;;;1999.90;999.90;;;;;;;;;;5046187;28;20052;-88
2021/01/15 07:39:58;;;;;;;1999.90;999.90;;;;;;;;;;5038129;28;20536;-91
2021/01/15 07:42:46;;;;;;;1999.90;999.90;;;;;;;;;;5058523;28;20061;-90
2021/01/15 07:45:25;;;;;;;1999.90;999.90;;;;;;;;;;5045605;28;20029;-89
2021/01/15 07:47:51;;;;;;;1999.90;999.90;;;;;;;;;;5050866;28;20087;-90
2021/01/15 07:50:46;;;;;;;1999.90;999.90;;;;;;;;;;5048832;28;20091;-90
2021/01/15 07:53:18;;;;;;;1999.90;999.90;;;;;;;;;;5034055;28;20126;-89
2021/01/15 07:55:47;;;;;;;1999.90;999.90;;;;;;;;;;5052689;28;20129;-90
2021/01/15 07:58:14;;;;;;;1999.90;999.90;;;;;;;;;;5048497;28;20033;-90
2021/01/15 08:00:40;;;;;;;1999.90;999.90;;;;;;;;;;5040366;28;20473;-87
2021/01/15 08:03:05;;;;;;;1999.90;999.90;;;;;;;;;;5030129;28;20147;-87
2021/01/15 08:05:32;;;;;;;1999.90;999.90;;;;;;;;;;5035139;28;20029;-87
2021/01/15 08:08:04;;;;;;;1999.90;999.90;;;;;;;;;;5046658;28;20043;-87
2021/01/15 08:10:30;;;;;;;1999.90;999.90;;;;;;;;;;5053190;28;20041;-88
2021/01/15 08:12:56;;;;;;;1999.90;999.90;;;;;;;;;;5052308;28;20016;-86
2021/01/15 08:15:31;;;;;;;1999.90;999.90;;;;;;;;;;5053759;28;20044;-87
2021/01/15 08:17:56;;;;;;;;;;;;;;;;;;5042856;28;20035;-84
2021/01/15 08:20:22;;;;;;;1999.90;999.90;;;;;;;;;;5051974;28;19909;-87
2021/01/15 08:22:48;;;;;;;1999.90;999.90;;;;;;;;;;5033456;28;20627;-88
2021/01/15 08:25:22;;;;;;;1999.90;999.90;;;;;;;;;;5034773;28;20075;-87
2021/01/15 08:27:47;;;;;;;1999.90;999.90;;;;;;;;;;5033879;28;20033;-86
2021/01/15 08:30:13;;;;;;;1999.90;999.90;;;;;;;;;;5048812;28;20086;-86
2021/01/15 08:32:40;;;;;;;1999.90;999.90;;;;;;;;;;5044652;28;20106;-87
2021/01/15 08:35:05;;;;;;;1999.90;999.90;;;;;;;;;;5034854;28;20060;-86
2021/01/15 08:37:31;;;;;;;1999.90;999.90;;;;;;;;;;5049220;28;20065;-86
2021/01/15 08:39:56;;;;;;;1999.90;999.90;;;;;;;;;;5048124;28;20016;-86
2021/01/15 08:42:22;;;;;;;1999.90;999.90;;;;;;;;;;5048775;28;20485;-87
2021/01/15 08:44:48;;;;;;;1999.90;999.90;;;;;;;;;;5049697;28;20027;-86
2021/01/15 08:47:15;;;;;;;1999.90;999.90;;;;;;;;;;5048991;28;20488;-86
2021/01/15 08:49:51;;;;;;;1999.90;999.90;;;;;;;;;;5043859;28;20025;-85
2021/01/15 08:52:21;;;;;;;1999.90;999.90;;;;;;;;;;5049591;28;20026;-86
2021/01/15 08:54:46;;;;;;;1999.90;999.90;;;;;;;;;;5034291;28;20025;-84
2021/01/15 08:57:12;;;;;;;1999.90;999.90;;;;;;;;;;5038906;28;20041;-85
2021/01/15 08:59:39;;;;;;;1999.90;999.90;;;;;;;;;;5062911;28;20039;-86
2021/01/15 09:02:05;;;;;;;1999.90;999.90;;;;;;;;;;5061499;28;20012;-86
2021/01/15 09:04:32;;;;;;;1999.90;999.90;;;;;;;;;;5073922;28;20021;-86
2021/01/15 09:07:00;;;;;;;1999.90;999.90;;;;;;;;;;5057812;28;20009;-86
2021/01/15 09:09:27;;;;;;;1999.90;999.90;;;;;;;;;;5066380;28;20032;-86
2021/01/15 09:11:53;;;;;;;1999.90;999.90;;;;;;;;;;5063308;28;20008;-87
2021/01/15 09:14:20;;;;;;;1999.90;999.90;;;;;;;;;;5067971;28;20035;-90
2021/01/15 09:16:46;;;;;;;1999.90;999.90;;;;;;;;;;5055469;28;20029;-86
2021/01/15 09:19:14;;;;;;;1999.90;999.90;;;;;;;;;;5062227;28;20059;-89
2021/01/15 09:21:51;;;;;;;1999.90;999.90;;;;;;;;;;5063201;28;20060;-89
2021/01/15 09:24:18;;;;;;;1999.90;999.90;;;;;;;;;;5060431;28;20150;-89
2021/01/15 09:26:43;;;;;;;1999.90;999.90;;;;;;;;;;5060161;28;20025;-91
2021/01/15 09:29:10;;;;;;;1999.90;999.90;;;;;;;;;;5067045;28;20071;-88
2021/01/15 09:31:35;;;;;;;1999.90;999.90;;;;;;;;;;5033369;28;20030;-88
2021/01/15 09:34:01;;;;;;;1999.90;999.90;;;;;;;;;;5043166;28;20121;-86
2021/01/15 09:36:26;;;;;;;1999.90;999.90;;;;;;;;;;5050318;28;20021;-88
2021/01/15 09:38:53;;;;;;;1999.90;999.90;;;;;;;;;;5052167;28;20029;-87
2021/01/15 09:41:18;;;;;;;1999.90;999.90;;;;;;;;;;5042306;28;20028;-86
2021/01/15 09:43:44;;;;;;;1999.90;999.90;;;;;;;;;;5047253;28;20032;-88
2021/01/15 09:46:23;;;;;;;1999.90;999.90;;;;;;;;;;5045877;28;20082;-88
2021/01/15 09:48:48;;;;;;;1999.90;999.90;;;;;;;;;;5039363;28;20028;-88
2021/01/15 09:51:14;;;;;;;1999.90;999.90;;;;;;;;;;5043605;28;20078;-87
2021/01/15 09:53:39;;;;;;;1999.90;999.90;;;;;;;;;;5043625;28;20362;-87
2021/01/15 09:56:05;;;;;;;1999.90;999.90;;;;;;;;;;5044408;28;20145;-87
2021/01/15 09:58:30;;;;;;;1999.90;999.90;;;;;;;;;;5027577;28;20653;-85
2021/01/15 10:00:55;;;;;;;1999.90;999.90;;;;;;;;;;5045268;28;20126;-86
2021/01/15 10:03:21;;;;;;;1999.90;999.90;;;;;;;;;;5042761;28;20048;-85
2021/01/15 10:05:46;;;;;;;1999.90;999.90;;;;;;;;;;5044556;28;20527;-87
2021/01/15 10:08:12;;;;;;;1999.90;999.90;;;;;;;;;;5039802;28;20053;-88
2021/01/15 10:10:37;;;;;;;1999.90;999.90;;;;;;;;;;5040366;28;20122;-86
2021/01/15 10:13:02;;;;;;;1999.90;999.90;;;;;;;;;;5038648;28;20394;-85
2021/01/15 10:15:28;;;;;;;1999.90;999.90;;;;;;;;;;5046917;28;20020;-90
2021/01/15 10:17:53;;;;;;;1999.90;999.90;;;;;;;;;;5040421;28;20037;-90
2021/01/15 10:20:20;;;;;;;1999.90;999.90;;;;;;;;;;5041527;28;20033;-90
2021/01/15 10:22:45;;;;;;;1999.90;999.90;;;;;;;;;;5045061;28;20048;-92
2021/01/15 10:25:11;;;;;;;1999.90;999.90;;;;;;;;;;5047609;28;20408;-91
2021/01/15 10:27:38;;;;;;;1999.90;999.90;;;;;;;;;;5041690;28;20079;-89
2021/01/15 10:30:04;;;;;;;1999.90;999.90;;;;;;;;;;5027036;28;20017;-90
2021/01/15 10:32:29;;;;;;;1999.90;999.90;;;;;;;;;;5042723;28;20453;-87
2021/01/15 10:34:54;;;;;;;1999.90;999.90;;;;;;;;;;5045951;28;20056;-89
2021/01/15 10:37:20;;;;;;;1999.90;999.90;;;;;;;;;;5048089;28;20807;-89
2021/01/15 10:39:45;;;;;;;1999.90;999.90;;;;;;;;;;5034592;28;20076;-88
2021/01/15 10:42:11;;;;;;;1999.90;999.90;;;;;;;;;;5043636;28;20068;-90
2021/01/15 10:44:36;;;;;;;1999.90;999.90;;;;;;;;;;5039861;28;20075;-90
2021/01/15 10:47:02;;;;;;;1999.90;999.90;;;;;;;;;;5050789;28;20021;-89
2021/01/15 10:49:28;;;;;;;1999.90;999.90;;;;;;;;;;5034679;28;20406;-90
2021/01/15 10:51:55;;;;;;;1999.90;999.90;;;;;;;;;;5044655;28;20041;-90
2021/01/15 10:54:20;;;;;;;1999.90;999.90;;;;;;;;;;5042195;28;20041;-89
2021/01/15 10:56:47;;;;;;;1999.90;999.90;;;;;;;;;;5046964;28;20048;-89
2021/01/15 10:59:12;;;;;;;1999.90;999.90;;;;;;;;;;5043779;28;20021;-90
2021/01/15 11:01:38;;;;;;;1999.90;999.90;;;;;;;;;;5039844;28;20085;-91
2021/01/15 11:04:06;;;;;;;1999.90;999.90;;;;;;;;;;5024523;28;20148;-90
2021/01/15 11:06:31;;;;;;;1999.90;999.90;;;;;;;;;;5038532;28;20025;-88
2021/01/15 11:08:57;;;;;;;1999.90;999.90;;;;;;;;;;5040838;28;20137;-88
2021/01/15 11:11:22;;;;;;;1999.90;999.90;;;;;;;;;;5034106;28;20031;-89
2021/01/15 11:13:47;;;;;;;1999.90;999.90;;;;;;;;;;5031790;28;20384;-91
2021/01/15 11:16:14;;;;;;;1999.90;999.90;;;;;;;;;;5043631;28;20033;-89
2021/01/15 11:18:39;;;;;;;1999.90;999.90;;;;;;;;;;5045438;28;20017;-90
2021/01/15 11:21:05;;;;;;;1999.90;999.90;;;;;;;;;;5049629;28;20025;-88
2021/01/15 11:23:30;;;;;;;1999.90;999.90;;;;;;;;;;5050022;28;20496;-89
2021/01/15 11:25:56;;;;;;;1999.90;999.90;;;;;;;;;;5046231;28;20059;-88
2021/01/15 11:28:21;;;;;;;1999.90;999.90;;;;;;;;;;5026898;28;20028;-89
2021/01/15 11:30:47;;;;;;;1999.90;999.90;;;;;;;;;;5047141;28;20064;-87
2021/01/15 11:33:12;;;;;;;1999.90;999.90;;;;;;;;;;5044050;28;20031;-87
2021/01/15 11:35:38;;;;;;;1999.90;999.90;;;;;;;;;;5043742;28;20029;-88
2021/01/15 11:38:03;;;;;;;1999.90;999.90;;;;;;;;;;5051161;28;20377;-87
2021/01/15 11:40:28;;;;;;;1999.90;999.90;;;;;;;;;;5044848;28;20094;-88
2021/01/15 11:42:55;;;;;;;1999.90;999.90;;;;;;;;;;5041133;28;20032;-86
2021/01/15 11:45:20;;;;;;;1999.90;999.90;;;;;;;;;;5046739;28;20065;-86
2021/01/15 11:47:53;;;;;;;1999.90;999.90;;;;;;;;;;5045583;28;20013;-87
2021/01/15 11:50:20;;;;;;;1999.90;999.90;;;;;;;;;;5043904;28;20083;-85
2021/01/15 11:52:47;;;;;;;1999.90;999.90;;;;;;;;;;5033588;28;20033;-84
2021/01/15 11:55:13;;;;;;;1999.90;999.90;;;;;;;;;;5034177;28;20186;-82
2021/01/15 11:57:39;;;;;;;1999.90;999.90;;;;;;;;;;5046584;28;20119;-90
2021/01/15 12:00:05;;;;;;;1999.90;999.90;;;;;;;;;;5031603;28;20048;-91
2021/01/15 12:02:32;;;;;;;1999.90;999.90;;;;;;;;;;5049766;28;20018;-88
2021/01/15 12:04:58;;;;;;;1999.90;999.90;;;;;;;;;;5050267;28;20040;-89
2021/01/15 12:07:23;;;;;;;1999.90;999.90;;;;;;;;;;5050223;28;20021;-89
2021/01/15 12:09:49;;;;;;;1999.90;999.90;;;;;;;;;;5037156;28;20561;-89
2021/01/15 12:12:14;;;;;;;1999.90;999.90;;;;;;;;;;5038979;28;20028;-88
2021/01/15 12:14:40;;;;;;;1999.90;999.90;;;;;;;;;;5049844;28;20033;-88
2021/01/15 12:17:05;;;;;;;1999.90;999.90;;;;;;;;;;5045609;28;20048;-87
2021/01/15 12:19:31;;;;;;;1999.90;999.90;;;;;;;;;;5042167;28;20028;-88
2021/01/15 12:21:56;;;;;;;1999.90;999.90;;;;;;;;;;5049083;28;20055;-88
2021/01/15 12:24:22;;;;;;;1999.90;999.90;;;;;;;;;;5052078;28;20029;-90
2021/01/15 12:26:47;;;;;;;1999.90;999.90;;;;;;;;;;5054847;28;20074;-87
2021/01/15 12:29:13;;;;;;;1999.90;999.90;;;;;;;;;;5034833;28;20039;-88
2021/01/15 12:31:38;;;;;;;1999.90;999.90;;;;;;;;;;5054485;28;20113;-88
2021/01/15 12:34:03;;;;;;;1999.90;999.90;;;;;;;;;;5050745;28;20370;-86
2021/01/15 12:36:29;;;;;;;1999.90;999.90;;;;;;;;;;5049479;28;20017;-85
2021/01/15 12:38:54;;;;;;;1999.90;999.90;;;;;;;;;;5046089;28;20110;-84
2021/01/15 12:41:20;;;;;;;1999.90;999.90;;;;;;;;;;5046396;28;20053;-85
2021/01/15 12:43:46;;;;;;;1999.90;999.90;;;;;;;;;;5018535;28;20481;-85
2021/01/15 12:46:12;;;;;;;1999.90;999.90;;;;;;;;;;5046770;28;20432;-84
2021/01/15 12:48:37;;;;;;;1999.90;999.90;;;;;;;;;;5043804;28;20067;-77
2021/01/15 12:51:04;;;;;;;1999.90;999.90;;;;;;;;;;5041624;28;20029;-82
2021/01/15 12:53:29;;;;;;;1999.90;999.90;;;;;;;;;;5020190;28;20152;-82
2021/01/15 12:55:55;;;;;;;1999.90;999.90;;;;;;;;;;5042725;28;20124;-82
2021/01/15 12:58:20;;;;;;;1999.90;999.90;;;;;;;;;;5029487;28;20472;-82
2021/01/15 13:00:47;;;;;;;1999.90;999.90;;;;;;;;;;5039200;28;20075;-82
2021/01/15 13:03:12;;;;;;;1999.90;999.90;;;;;;;;;;5038582;28;20021;-84
2021/01/15 13:05:38;;;;;;;1999.90;999.90;;;;;;;;;;5044866;28;20142;-83
2021/01/15 13:08:04;;;;;;;1999.90;999.90;;;;;;;;;;5042563;28;20102;-83
2021/01/15 13:10:29;;;;;;;1999.90;999.90;;;;;;;;;;5047493;28;20036;-84
2021/01/15 13:12:56;;;;;;;1999.90;999.90;;;;;;;;;;5037072;28;20030;-84
2021/01/15 13:15:21;;;;;;;1999.90;999.90;;;;;;;;;;5039645;28;20116;-85
2021/01/15 13:17:47;;;;;;;1999.90;999.90;;;;;;;;;;5044505;28;20562;-84
2021/01/15 13:20:13;;;;;;;1999.90;999.90;;;;;;;;;;5043633;28;20032;-84
2021/01/15 13:22:39;;;;;;;1999.90;999.90;;;;;;;;;;5022261;28;20052;-85
2021/01/15 13:25:04;;;;;;;1999.90;999.90;;;;;;;;;;5037871;28;20600;-85
2021/01/15 13:27:30;;;;;;;1999.90;999.90;;;;;;;;;;5025223;28;20029;-85
2021/01/15 13:29:55;;;;;;;1999.90;999.90;;;;;;;;;;5004405;28;20615;-85
2021/01/15 13:32:20;;;;;;;1999.90;999.90;;;;;;;;;;5040825;28;20037;-85
2021/01/15 13:34:46;;;;;;;1999.90;999.90;;;;;;;;;;5038309;28;20036;-85
2021/01/15 13:37:12;;;;;;;1999.90;999.90;;;;;;;;;;5038701;28;20036;-84
2021/01/15 13:39:38;;;;;;;1999.90;999.90;;;;;;;;;;5039388;28;20037;-84
2021/01/15 13:42:03;;;;;;;1999.90;999.90;;;;;;;;;;5038331;28;20431;-84